Terminal Aerodrome Forecast
Issued by NWS

Current Version | Previous Version | Text Only | Print | Product List | Glossary Off
Versions: 1 2 3 4 5 6 7 8 9 10 11 12 13 14 15 16 17 18 19 20

000
FTUS41 KILN 212010 AAA
TAFLCK
TAF AMD
KLCK 212010Z 2120/2218 20011KT P6SM VCTS SCT015 OVC035CB
      TEMPO 2121/2123 3SM -TSRA BR OVC015CB
     FM212300 23010KT P6SM VCSH BKN025
     FM220200 26008KT P6SM BKN050
     FM221200 27010KT P6SM FEW035 SCT250=

USA.gov is the U.S. government's official web portal to all federal, state and local government web resources and services.